Time;durP1;ratioP1;P1;durP2;ratioP2;P2;SDS_P1;SDS_P2;PMS_P1;PMS_P2;Temp;Humidity;BMP_temperature;BMP_pressure;BME280_temperature;BME280_humidity;BME280_pressure;Samples;Min_cycle;Max_cycle;Signal;HPM_P1;HPM_P2
2023/07/25 00:01:29;;;;;;;11.60;10.50;;;;;;;23.22;82.42;97270.40;104618;1273;72642;-84
2023/07/25 00:03:57;;;;;;;11.80;10.60;;;;;;;23.18;82.54;97264.82;104569;1274;61060;-87
2023/07/25 00:06:24;;;;;;;11.80;10.70;;;;;;;23.14;82.77;97269.46;104601;1271;61175;-84
2023/07/25 00:08:51;;;;;;;11.40;10.20;;;;;;;23.08;83.30;97270.72;104798;1271;74335;-85
2023/07/25 00:11:18;;;;;;;10.40;9.30;;;;;;;23.03;83.39;97277.10;104542;1274;74703;-84
2023/07/25 00:13:45;;;;;;;10.10;9.10;;;;;;;22.97;83.39;97279.94;104496;1271;72479;-87
2023/07/25 00:16:12;;;;;;;10.90;9.80;;;;;;;22.90;83.63;97292.17;104298;1271;61096;-84
2023/07/25 00:18:39;;;;;;;10.60;9.60;;;;;;;22.84;83.86;97296.65;104542;1274;61063;-87
2023/07/25 00:21:06;;;;;;;9.40;8.30;;;;;;;22.79;83.89;97305.98;104507;1270;73790;-86
2023/07/25 00:23:33;;;;;;;8.30;7.50;;;;;;;22.72;83.83;97320.86;104599;1273;72786;-84
2023/07/25 00:26:00;;;;;;;6.60;6.00;;;;;;;22.66;83.97;97321.20;104561;1271;72687;-84
2023/07/25 00:28:27;;;;;;;7.10;6.20;;;;;;;22.61;84.02;97316.55;104465;1276;61128;-88
2023/07/25 00:30:54;;;;;;;6.90;6.20;;;;;;;22.54;84.13;97310.16;104947;1273;61159;-86
2023/07/25 00:33:21;;;;;;;6.40;5.80;;;;;;;22.48;84.01;97306.36;108545;1270;72957;-85
2023/07/25 00:35:52;;;;;;;5.90;5.30;;;;;;;22.40;84.28;97307.36;108509;1270;74551;-85
2023/07/25 00:38:19;;;;;;;6.80;5.50;;;;;;;22.34;84.84;97308.20;108560;1270;71790;-84
2023/07/25 00:40:46;;;;;;;6.50;4.90;;;;;;;22.28;85.06;97306.90;108419;1270;58673;-84
2023/07/25 00:43:13;;;;;;;6.90;5.60;;;;;;;22.24;85.23;97312.98;106273;1271;61043;-84
2023/07/25 00:45:40;;;;;;;8.30;5.20;;;;;;;22.21;85.41;97317.27;105954;1275;74558;-84
2023/07/25 00:48:08;;;;;;;6.50;5.00;;;;;;;22.16;85.39;97308.90;106018;1271;75229;-85
2023/07/25 00:50:34;;;;;;;6.80;5.50;;;;;;;22.12;85.67;97306.02;106163;1275;70904;-85
2023/07/25 00:53:02;;;;;;;6.30;4.70;;;;;;;22.09;86.04;97308.79;105986;1275;61179;-85
2023/07/25 00:55:29;;;;;;;6.40;5.80;;;;;;;22.07;86.17;97307.10;105555;1271;61515;-84
2023/07/25 00:57:56;;;;;;;5.70;5.10;;;;;;;22.05;86.17;97297.39;104533;1275;73919;-87
2023/07/25 01:00:24;;;;;;;5.20;4.70;;;;;;;22.03;86.49;97294.47;104530;1277;75273;-86
2023/07/25 01:02:51;;;;;;;5.30;4.80;;;;;;;22.01;86.77;97296.87;104037;1277;72833;-87
2023/07/25 01:05:18;;;;;;;5.90;5.30;;;;;;;21.98;86.80;97289.96;104461;1276;61179;-87
2023/07/25 01:07:45;;;;;;;5.60;4.80;;;;;;;21.92;86.96;97290.08;104490;1276;61173;-86
2023/07/25 01:10:14;;;;;;;5.30;4.80;;;;;;;21.86;87.33;97289.22;104488;1272;72865;-86
2023/07/25 01:12:41;;;;;;;5.50;5.00;;;;;;;21.82;87.65;97286.13;104444;1276;74462;-87
2023/07/25 01:15:08;;;;;;;5.90;5.00;;;;;;;21.78;87.73;97287.34;104453;1276;72704;-86
2023/07/25 01:17:35;;;;;;;6.20;5.50;;;;;;;21.75;87.85;97287.67;104552;1270;62471;-84
2023/07/25 01:20:03;;;;;;;5.20;4.70;;;;;;;21.71;88.11;97294.89;104505;1277;61514;-86
2023/07/25 01:22:30;;;;;;;6.10;5.50;;;;;;;21.68;88.18;97292.77;104274;1277;73551;-87
2023/07/25 01:24:57;;;;;;;5.20;4.80;;;;;;;21.64;88.35;97280.27;104163;1278;74621;-86
2023/07/25 01:27:24;;;;;;;7.00;5.00;;;;;;;21.62;88.67;97276.19;104466;1274;72788;-87
2023/07/25 01:29:51;;;;;;;5.70;5.20;;;;;;;21.58;88.83;97267.77;104476;1271;61157;-85
2023/07/25 01:32:18;;;;;;;9.80;4.90;;;;;;;21.55;89.16;97256.91;104503;1277;61198;-87
2023/07/25 01:34:45;;;;;;;8.40;5.20;;;;;;;21.53;89.48;97254.72;104494;1275;73830;-85
2023/07/25 01:37:12;;;;;;;5.20;4.70;;;;;;;21.51;89.42;97243.11;104488;1271;74779;-86
2023/07/25 01:39:42;;;;;;;7.00;5.10;;;;;;;21.47;89.47;97249.02;104452;1275;71492;-85
2023/07/25 01:42:09;;;;;;;5.50;5.00;;;;;;;21.46;89.66;97240.13;104450;1271;62765;-87
2023/07/25 01:44:36;;;;;;;9.10;5.30;;;;;;;21.43;89.78;97239.94;104544;1275;61831;-86
2023/07/25 01:47:03;;;;;;;5.30;4.80;;;;;;;21.41;89.71;97239.50;104514;1276;72616;-85
2023/07/25 01:49:31;;;;;;;5.30;4.60;;;;;;;21.39;89.99;97237.43;104513;1271;75388;-85
2023/07/25 01:51:57;;;;;;;6.90;5.10;;;;;;;21.37;90.07;97231.25;104466;1275;71889;-84
2023/07/25 01:54:25;;;;;;;6.10;4.80;;;;;;;21.35;90.26;97228.25;104533;1276;61150;-85
2023/07/25 01:56:52;;;;;;;5.80;5.30;;;;;;;21.31;90.13;97217.27;104683;1277;61227;-84
2023/07/25 01:59:19;;;;;;;6.50;5.50;;;;;;;21.28;90.29;97214.04;104336;1276;72862;-86
2023/07/25 02:01:46;;;;;;;5.00;4.50;;;;;;;21.24;90.34;97201.63;104551;1276;74662;-85
2023/07/25 02:04:13;;;;;;;6.30;5.60;;;;;;;21.21;90.54;97196.45;104478;1276;72816;-87
2023/07/25 02:06:40;;;;;;;5.20;4.80;;;;;;;21.17;90.87;97194.16;104188;1274;61209;-85
2023/07/25 02:09:07;;;;;;;5.30;4.80;;;;;;;21.12;91.01;97191.36;104498;1276;61155;-85
2023/07/25 02:11:34;;;;;;;4.90;4.50;;;;;;;21.08;91.33;97193.08;104524;1271;73327;-85
2023/07/25 02:14:01;;;;;;;5.50;4.60;;;;;;;21.03;91.56;97193.13;104492;1274;74334;-86
2023/07/25 02:16:29;;;;;;;5.20;4.70;;;;;;;20.99;91.99;97189.09;104602;1270;72727;-85
2023/07/25 02:18:56;;;;;;;5.30;4.40;;;;;;;20.96;92.07;97182.56;104620;1276;61171;-85
2023/07/25 02:21:23;;;;;;;5.40;4.70;;;;;;;20.93;92.18;97169.48;104601;1270;61219;-85
2023/07/25 02:23:50;;;;;;;6.60;4.50;;;;;;;20.90;92.28;97168.41;104452;1274;73454;-86
2023/07/25 02:26:17;;;;;;;5.90;4.60;;;;;;;20.87;92.48;97175.91;104456;1276;74680;-85
2023/07/25 02:28:44;;;;;;;5.00;3.90;;;;;;;20.84;92.64;97179.42;104433;1274;71448;-84
2023/07/25 02:31:11;;;;;;;5.60;4.90;;;;;;;20.82;92.81;97187.14;104496;1270;61786;-85
2023/07/25 02:33:39;;;;;;;5.90;5.40;;;;;;;20.79;92.86;97186.11;104599;1274;61445;-84
2023/07/25 02:36:06;;;;;;;5.70;5.10;;;;;;;20.76;93.01;97191.59;104142;1279;73702;-84
2023/07/25 02:38:33;;;;;;;6.50;5.60;;;;;;;20.72;93.22;97195.23;104557;1273;74674;-87
2023/07/25 02:41:00;;;;;;;4.90;4.40;;;;;;;20.70;93.46;97199.28;104488;1274;72441;-85
2023/07/25 02:43:27;;;;;;;5.70;4.60;;;;;;;20.69;93.67;97189.42;104468;1270;61338;-86
2023/07/25 02:45:55;;;;;;;5.40;4.30;;;;;;;20.68;93.78;97183.11;104594;1274;61188;-86
2023/07/25 02:48:22;;;;;;;7.00;4.80;;;;;;;20.67;93.86;97193.27;104520;1270;73933;-88
2023/07/25 02:50:49;;;;;;;5.40;4.70;;;;;;;20.66;93.97;97187.98;105952;1277;73003;-84
2023/07/25 02:53:16;;;;;;;5.50;4.20;;;;;;;20.66;93.87;97175.84;106163;1274;71645;-87
2023/07/25 02:55:44;;;;;;;5.10;4.60;;;;;;;20.67;93.78;97175.88;105597;1277;61080;-85
2023/07/25 02:58:12;;;;;;;5.40;4.90;;;;;;;20.68;93.82;97177.23;104574;1274;61205;-85
2023/07/25 03:00:42;;;;;;;6.40;5.00;;;;;;;20.69;93.87;97175.23;104719;1273;73757;-84
2023/07/25 03:03:10;;;;;;;5.40;4.90;;;;;;;20.70;94.08;97177.33;104607;1276;75899;-85
2023/07/25 03:05:37;;;;;;;5.80;5.20;;;;;;;20.71;93.89;97177.13;104582;1271;73255;-85
2023/07/25 03:08:05;;;;;;;6.70;5.80;;;;;;;20.72;93.88;97184.60;104515;1276;61262;-87
2023/07/25 03:10:32;;;;;;;5.80;4.50;;;;;;;20.74;93.96;97191.70;104552;1275;61131;-87
2023/07/25 03:13:00;;;;;;;5.40;4.90;;;;;;;20.74;93.87;97188.52;104461;1274;72698;-87
2023/07/25 03:15:27;;;;;;;5.20;4.70;;;;;;;20.74;93.84;97187.80;104260;1277;73423;-85
2023/07/25 03:17:54;;;;;;;5.40;4.90;;;;;;;20.75;93.96;97186.81;104512;1276;73423;-86
2023/07/25 03:20:21;;;;;;;5.70;5.00;;;;;;;20.75;93.87;97186.94;104453;1276;62780;-85
2023/07/25 03:22:48;;;;;;;4.90;4.50;;;;;;;20.77;93.91;97191.64;104478;1274;61077;-87
2023/07/25 03:25:15;;;;;;;5.40;4.90;;;;;;;20.78;93.89;97189.17;104471;1274;73907;-86
2023/07/25 03:27:42;;;;;;;6.90;5.50;;;;;;;20.80;93.84;97188.39;104598;1270;74054;-86
2023/07/25 03:30:09;;;;;;;5.80;5.20;;;;;;;20.80;93.59;97187.17;104576;1276;70720;-85
2023/07/25 03:32:37;;;;;;;5.80;5.20;;;;;;;20.82;93.37;97182.65;104523;1274;61109;-87
2023/07/25 03:35:05;;;;;;;6.00;5.40;;;;;;;20.83;93.19;97176.34;104544;1274;61803;-85
2023/07/25 03:37:32;;;;;;;5.40;4.90;;;;;;;20.84;93.07;97180.27;104581;1272;75155;-87
2023/07/25 03:39:59;;;;;;;4.90;4.50;;;;;;;20.86;93.11;97179.10;104478;1274;74747;-84
2023/07/25 03:42:26;;;;;;;5.80;5.20;;;;;;;20.88;93.11;97165.59;104501;1274;71542;-87
2023/07/25 03:44:53;;;;;;;7.00;5.20;;;;;;;20.90;93.24;97170.02;104597;1273;61082;-87
2023/07/25 03:47:20;;;;;;;6.20;5.60;;;;;;;20.93;93.22;97164.60;104611;1273;61101;-89
2023/07/25 03:49:47;;;;;;;5.90;5.10;;;;;;;20.96;93.30;97161.27;104580;1273;72741;-86
2023/07/25 03:52:14;;;;;;;7.90;6.90;;;;;;;20.99;93.03;97152.55;104677;1274;73581;-86
2023/07/25 03:54:41;;;;;;;7.10;6.40;;;;;;;21.01;93.02;97150.63;105196;1274;71758;-85
2023/07/25 03:57:08;;;;;;;8.40;7.10;;;;;;;21.02;92.84;97144.33;105839;1274;60417;-84
2023/07/25 03:59:35;;;;;;;9.90;7.50;;;;;;;21.03;92.69;97146.34;104871;1269;61291;-85
2023/07/25 04:02:02;;;;;;;8.70;7.80;;;;;;;21.03;92.71;97141.05;104651;1271;72754;-86
2023/07/25 04:04:30;;;;;;;9.40;8.40;;;;;;;21.03;92.81;97140.52;104740;1276;74728;-84
2023/07/25 04:06:57;;;;;;;12.70;8.90;;;;;;;21.03;93.02;97140.59;104998;1273;71537;-85
2023/07/25 04:09:24;;;;;;;9.20;7.40;;;;;;;21.02;93.13;97140.68;105613;1273;61212;-91
2023/07/25 04:11:52;;;;;;;11.80;9.40;;;;;;;21.03;93.32;97136.05;104886;1277;61621;-90
2023/07/25 04:14:19;;;;;;;8.60;7.80;;;;;;;21.03;93.18;97129.51;104859;1273;72211;-91
2023/07/25 04:16:46;;;;;;;9.00;8.00;;;;;;;21.02;93.61;97127.39;104729;1275;73847;-90
2023/07/25 04:19:15;;;;;;;8.50;6.80;;;;;;;21.01;93.71;97123.75;104543;1273;72578;-92
2023/07/25 04:21:42;;;;;;;7.80;6.90;;;;;;;21.00;93.93;97128.65;104822;1274;61220;-90
2023/07/25 04:24:10;;;;;;;18.80;16.90;;;;;;;20.98;93.94;97131.38;104931;1274;61612;-90
2023/07/25 04:26:37;;;;;;;25.70;19.80;;;;;;;20.98;94.17;97133.42;104914;1274;72845;-90
2023/07/25 04:29:04;;;;;;;22.30;19.90;;;;;;;20.98;94.63;97130.54;104573;1276;74657;-89
2023/07/25 04:31:31;;;;;;;16.00;14.40;;;;;;;21.01;95.10;97131.14;104720;1271;74205;-89
2023/07/25 04:33:59;;;;;;;10.30;9.30;;;;;;;21.06;95.31;97133.22;104613;1276;61908;-89
2023/07/25 04:36:28;;;;;;;8.10;6.90;;;;;;;21.11;95.12;97124.55;104762;1270;61127;-90
2023/07/25 04:38:56;;;;;;;8.30;7.30;;;;;;;21.17;94.85;97129.27;104819;1274;74354;-90
2023/07/25 04:41:23;;;;;;;9.50;7.90;;;;;;;21.23;94.78;97126.38;104416;1270;74566;-90
2023/07/25 04:43:50;;;;;;;8.50;7.70;;;;;;;21.31;94.61;97125.73;104899;1273;70798;-89
2023/07/25 04:46:18;;;;;;;8.20;6.40;;;;;;;21.38;94.67;97126.38;104526;1273;61107;-89
2023/07/25 04:48:45;;;;;;;7.40;6.70;;;;;;;21.45;94.56;97130.01;104894;1273;61250;-90
2023/07/25 04:51:13;;;;;;;9.60;8.70;;;;;;;21.53;94.58;97122.84;104783;1276;72655;-90
2023/07/25 04:53:40;;;;;;;10.00;8.90;;;;;;;21.61;94.74;97118.26;104931;1274;74785;-89
2023/07/25 04:56:08;;;;;;;9.00;8.20;;;;;;;21.67;94.21;97115.08;105074;1274;73162;-90
2023/07/25 04:58:42;;;;;;;8.70;7.80;;;;;;;21.72;93.56;97109.28;104464;1276;61221;-89
2023/07/25 05:01:09;;;;;;;11.00;10.10;;;;;;;21.77;93.24;97107.23;104544;1277;61141;-91
2023/07/25 05:03:43;;;;;;;12.30;11.10;;;;;;;21.80;93.31;97102.92;104751;1283;72680;-89
2023/07/25 05:06:28;;;;;;;12.90;11.50;;;;;;;21.84;93.89;97103.35;104425;1270;74758;-93
2023/07/25 05:09:07;;;;;;;12.10;11.00;;;;;;;21.88;94.65;97107.91;104586;1277;72583;-91
2023/07/25 05:20:26;;;;;;;7.80;7.10;;;;;;;22.19;95.12;97107.59;102822;1303;73274;-90
2023/07/25 05:23:03;;;;;;;9.40;8.20;;;;;;;22.31;94.79;97104.39;102144;1302;73503;-90
2023/07/25 05:26:30;;;;;;;11.50;9.30;;;;;;;22.43;94.51;97105.52;102321;1301;71614;-90
2023/07/25 05:29:03;;;;;;;9.90;9.00;;;;;;;22.52;94.22;97113.33;102264;1302;62156;-91
2023/07/25 05:31:49;;;;;;;9.60;8.80;;;;;;;22.62;93.80;97115.58;102155;1299;61240;-91
2023/07/25 05:34:19;;;;;;;14.50;11.70;;;;;;;22.71;93.46;97112.35;102469;1304;74085;-91
2023/07/25 05:38:02;;;;;;;15.30;12.90;;;;;;;22.81;93.03;97115.73;102186;1299;74619;-91
2023/07/25 05:41:17;;;;;;;17.80;11.10;;;;;;;22.94;92.63;97117.84;101884;1302;72053;-90
2023/07/25 05:44:02;;;;;;;13.60;9.80;;;;;;;23.04;92.44;97110.92;102361;1300;62168;-91
2023/07/25 05:47:30;;;;;;;;;;;;;;;;;;;;;
2023/07/25 05:51:09;;;;;;;19.00;12.20;;;;;;;23.27;91.48;97112.83;103034;1293;73938;-91
2023/07/25 05:54:15;;;;;;;12.70;10.50;;;;;;;23.42;90.41;97115.81;103623;1293;75209;-90
2023/07/25 05:57:09;;;;;;;12.50;10.00;;;;;;;23.51;89.28;97116.81;103494;1292;71066;-89
2023/07/25 06:09:19;;;;;;;11.40;10.20;;;;;;;23.91;84.55;97143.27;102493;1307;73975;-88
2023/07/25 06:12:14;;;;;;;13.50;10.20;;;;;;;24.00;83.52;97142.98;101746;1313;73712;-91
2023/07/25 06:15:34;;;;;;;12.60;11.00;;;;;;;24.09;82.63;97135.11;101252;1317;72855;-91
2023/07/25 06:25:45;;;;;;;13.50;10.70;;;;;;;24.48;80.36;97117.52;103124;1293;73134;-90
2023/07/25 06:44:09;;;;;;;11.70;10.50;;;;;;;25.19;74.92;97121.47;100802;1285;72362;31
2023/07/25 07:13:33;;;;;;;13.10;10.80;;;;;;;26.06;73.12;97128.78;103966;1287;75613;-89
2023/07/25 07:46:00;;;;;;;;;;;;;;;;;;;;;
2023/07/25 08:00:56;;;;;;;13.90;11.40;;;;;;;26.66;69.65;97148.53;80708;1318;71859;-90
2023/07/25 08:04:00;;;;;;;11.70;10.50;;;;;;;26.72;67.07;97140.39;103862;1295;74109;-90
2023/07/25 08:28:09;;;;;;;12.00;9.90;;;;;;;26.74;60.86;97148.58;106406;1283;71497;-92
